sensor_id;sensor_type;location;lat;lon;timestamp;P1;durP1;ratioP1;P2;durP2;ratioP2
11761;SDS011;5938;47.098;15.474;2024-02-15T00:00:41;38.70;;;6.30;;
11761;SDS011;5938;47.098;15.474;2024-02-15T00:04:44;36.50;;;5.50;;
11761;SDS011;5938;47.098;15.474;2024-02-15T00:08:49;34.60;;;4.07;;
11761;SDS011;5938;47.098;15.474;2024-02-15T00:12:55;35.50;;;4.63;;
11761;SDS011;5938;47.098;15.474;2024-02-15T00:16:58;34.10;;;3.90;;
11761;SDS011;5938;47.098;15.474;2024-02-15T00:21:01;34.93;;;4.13;;
11761;SDS011;5938;47.098;15.474;2024-02-15T00:25:05;38.50;;;4.93;;
11761;SDS011;5938;47.098;15.474;2024-02-15T00:29:11;35.27;;;4.70;;
11761;SDS011;5938;47.098;15.474;2024-02-15T00:33:15;33.93;;;4.10;;
11761;SDS011;5938;47.098;15.474;2024-02-15T00:37:19;33.00;;;3.20;;
11761;SDS011;5938;47.098;15.474;2024-02-15T00:41:23;33.77;;;3.33;;
11761;SDS011;5938;47.098;15.474;2024-02-15T00:45:28;32.10;;;3.20;;
11761;SDS011;5938;47.098;15.474;2024-02-15T00:49:33;33.70;;;3.77;;
11761;SDS011;5938;47.098;15.474;2024-02-15T00:53:38;33.57;;;3.77;;
11761;SDS011;5938;47.098;15.474;2024-02-15T00:57:41;33.83;;;4.67;;
11761;SDS011;5938;47.098;15.474;2024-02-15T01:01:46;33.07;;;3.53;;
11761;SDS011;5938;47.098;15.474;2024-02-15T01:05:49;34.80;;;3.97;;
11761;SDS011;5938;47.098;15.474;2024-02-15T01:09:53;33.37;;;3.50;;
11761;SDS011;5938;47.098;15.474;2024-02-15T01:13:56;35.40;;;3.53;;
11761;SDS011;5938;47.098;15.474;2024-02-15T01:18:02;30.80;;;2.60;;
11761;SDS011;5938;47.098;15.474;2024-02-15T01:22:06;33.40;;;3.37;;
11761;SDS011;5938;47.098;15.474;2024-02-15T01:26:09;32.50;;;2.97;;
11761;SDS011;5938;47.098;15.474;2024-02-15T01:30:14;35.03;;;4.67;;
11761;SDS011;5938;47.098;15.474;2024-02-15T01:34:19;34.00;;;4.27;;
11761;SDS011;5938;47.098;15.474;2024-02-15T01:38:23;31.90;;;3.57;;
11761;SDS011;5938;47.098;15.474;2024-02-15T01:42:26;33.87;;;4.00;;
11761;SDS011;5938;47.098;15.474;2024-02-15T01:46:30;36.27;;;4.90;;
11761;SDS011;5938;47.098;15.474;2024-02-15T01:50:35;38.23;;;6.20;;
11761;SDS011;5938;47.098;15.474;2024-02-15T01:54:39;34.97;;;5.10;;
11761;SDS011;5938;47.098;15.474;2024-02-15T01:58:43;31.77;;;3.87;;
11761;SDS011;5938;47.098;15.474;2024-02-15T02:02:48;34.57;;;5.00;;
11761;SDS011;5938;47.098;15.474;2024-02-15T02:06:53;33.13;;;4.67;;
11761;SDS011;5938;47.098;15.474;2024-02-15T02:11:01;34.30;;;5.20;;
11761;SDS011;5938;47.098;15.474;2024-02-15T02:15:05;41.03;;;6.87;;
11761;SDS011;5938;47.098;15.474;2024-02-15T02:19:10;44.13;;;7.73;;
11761;SDS011;5938;47.098;15.474;2024-02-15T02:23:15;57.50;;;12.97;;
11761;SDS011;5938;47.098;15.474;2024-02-15T02:27:21;45.17;;;9.60;;
11761;SDS011;5938;47.098;15.474;2024-02-15T02:31:25;48.13;;;9.37;;
11761;SDS011;5938;47.098;15.474;2024-02-15T02:35:29;38.17;;;7.00;;
11761;SDS011;5938;47.098;15.474;2024-02-15T02:39:35;39.60;;;6.20;;
11761;SDS011;5938;47.098;15.474;2024-02-15T02:43:41;42.93;;;6.40;;
11761;SDS011;5938;47.098;15.474;2024-02-15T02:47:45;39.23;;;5.83;;
11761;SDS011;5938;47.098;15.474;2024-02-15T02:51:54;35.97;;;4.70;;
11761;SDS011;5938;47.098;15.474;2024-02-15T02:55:58;38.40;;;4.97;;
11761;SDS011;5938;47.098;15.474;2024-02-15T03:00:03;36.30;;;4.30;;
11761;SDS011;5938;47.098;15.474;2024-02-15T03:04:09;37.13;;;4.73;;
11761;SDS011;5938;47.098;15.474;2024-02-15T03:08:13;34.00;;;4.27;;
11761;SDS011;5938;47.098;15.474;2024-02-15T03:12:18;35.27;;;4.60;;
11761;SDS011;5938;47.098;15.474;2024-02-15T03:16:23;34.47;;;4.60;;
11761;SDS011;5938;47.098;15.474;2024-02-15T03:20:27;39.30;;;4.67;;
11761;SDS011;5938;47.098;15.474;2024-02-15T03:24:30;39.10;;;4.67;;
11761;SDS011;5938;47.098;15.474;2024-02-15T03:28:35;37.33;;;5.10;;
11761;SDS011;5938;47.098;15.474;2024-02-15T03:32:40;37.53;;;6.00;;
11761;SDS011;5938;47.098;15.474;2024-02-15T03:36:44;35.10;;;4.50;;
11761;SDS011;5938;47.098;15.474;2024-02-15T03:40:48;37.37;;;7.30;;
11761;SDS011;5938;47.098;15.474;2024-02-15T03:44:52;34.17;;;4.30;;
11761;SDS011;5938;47.098;15.474;2024-02-15T03:48:56;34.20;;;4.00;;
11761;SDS011;5938;47.098;15.474;2024-02-15T03:53:00;37.17;;;5.53;;
11761;SDS011;5938;47.098;15.474;2024-02-15T03:57:04;35.17;;;4.47;;
11761;SDS011;5938;47.098;15.474;2024-02-15T04:01:08;33.37;;;3.60;;
11761;SDS011;5938;47.098;15.474;2024-02-15T04:05:14;32.33;;;3.50;;
11761;SDS011;5938;47.098;15.474;2024-02-15T04:09:19;32.27;;;3.50;;
11761;SDS011;5938;47.098;15.474;2024-02-15T04:13:23;32.00;;;3.20;;
11761;SDS011;5938;47.098;15.474;2024-02-15T04:17:26;31.53;;;3.30;;
11761;SDS011;5938;47.098;15.474;2024-02-15T04:21:34;32.87;;;3.90;;
11761;SDS011;5938;47.098;15.474;2024-02-15T04:25:38;36.70;;;5.50;;
11761;SDS011;5938;47.098;15.474;2024-02-15T04:29:45;35.07;;;5.07;;
11761;SDS011;5938;47.098;15.474;2024-02-15T04:33:49;33.40;;;4.60;;
11761;SDS011;5938;47.098;15.474;2024-02-15T04:37:54;37.00;;;3.70;;
11761;SDS011;5938;47.098;15.474;2024-02-15T04:41:57;34.17;;;3.77;;
11761;SDS011;5938;47.098;15.474;2024-02-15T04:46:01;33.07;;;4.23;;
11761;SDS011;5938;47.098;15.474;2024-02-15T04:50:09;33.73;;;4.50;;
11761;SDS011;5938;47.098;15.474;2024-02-15T04:54:13;34.10;;;5.47;;
11761;SDS011;5938;47.098;15.474;2024-02-15T04:58:19;32.83;;;4.33;;
11761;SDS011;5938;47.098;15.474;2024-02-15T05:02:23;34.87;;;5.10;;
11761;SDS011;5938;47.098;15.474;2024-02-15T05:06:26;36.60;;;5.07;;
11761;SDS011;5938;47.098;15.474;2024-02-15T05:10:33;33.53;;;4.77;;
11761;SDS011;5938;47.098;15.474;2024-02-15T05:14:39;34.87;;;5.63;;
11761;SDS011;5938;47.098;15.474;2024-02-15T05:18:42;49.53;;;5.60;;
11761;SDS011;5938;47.098;15.474;2024-02-15T05:22:47;37.60;;;6.00;;
11761;SDS011;5938;47.098;15.474;2024-02-15T05:26:53;39.37;;;6.17;;
11761;SDS011;5938;47.098;15.474;2024-02-15T05:31:12;42.43;;;7.47;;
11761;SDS011;5938;47.098;15.474;2024-02-15T05:35:19;35.33;;;4.70;;
11761;SDS011;5938;47.098;15.474;2024-02-15T05:39:22;38.27;;;5.93;;
11761;SDS011;5938;47.098;15.474;2024-02-15T05:43:28;39.17;;;6.13;;
11761;SDS011;5938;47.098;15.474;2024-02-15T05:47:36;37.80;;;7.20;;
11761;SDS011;5938;47.098;15.474;2024-02-15T05:51:41;36.90;;;5.87;;
11761;SDS011;5938;47.098;15.474;2024-02-15T05:55:45;37.70;;;5.57;;
11761;SDS011;5938;47.098;15.474;2024-02-15T05:59:52;40.90;;;5.80;;
11761;SDS011;5938;47.098;15.474;2024-02-15T06:04:01;53.60;;;7.60;;
11761;SDS011;5938;47.098;15.474;2024-02-15T06:08:06;43.43;;;7.20;;
11761;SDS011;5938;47.098;15.474;2024-02-15T06:12:09;40.63;;;6.37;;
11761;SDS011;5938;47.098;15.474;2024-02-15T06:16:14;46.07;;;7.60;;
11761;SDS011;5938;47.098;15.474;2024-02-15T06:20:17;42.13;;;6.90;;
11761;SDS011;5938;47.098;15.474;2024-02-15T06:24:22;36.83;;;6.30;;
11761;SDS011;5938;47.098;15.474;2024-02-15T06:28:27;38.90;;;6.63;;
11761;SDS011;5938;47.098;15.474;2024-02-15T06:32:49;45.03;;;6.47;;
11761;SDS011;5938;47.098;15.474;2024-02-15T06:37:10;40.47;;;7.47;;
11761;SDS011;5938;47.098;15.474;2024-02-15T06:41:30;36.50;;;6.30;;
11761;SDS011;5938;47.098;15.474;2024-02-15T06:45:35;35.73;;;6.20;;
11761;SDS011;5938;47.098;15.474;2024-02-15T06:49:40;40.73;;;8.53;;
11761;SDS011;5938;47.098;15.474;2024-02-15T06:53:47;39.20;;;7.40;;
11761;SDS011;5938;47.098;15.474;2024-02-15T06:57:51;40.27;;;8.07;;
11761;SDS011;5938;47.098;15.474;2024-02-15T07:01:55;39.73;;;7.90;;
11761;SDS011;5938;47.098;15.474;2024-02-15T07:06:02;34.73;;;7.40;;
11761;SDS011;5938;47.098;15.474;2024-02-15T07:10:06;39.87;;;9.30;;
11761;SDS011;5938;47.098;15.474;2024-02-15T07:14:10;43.30;;;14.00;;
11761;SDS011;5938;47.098;15.474;2024-02-15T07:18:15;46.23;;;10.67;;
11761;SDS011;5938;47.098;15.474;2024-02-15T07:22:32;40.33;;;9.60;;
11761;SDS011;5938;47.098;15.474;2024-02-15T07:26:37;37.30;;;9.23;;
11761;SDS011;5938;47.098;15.474;2024-02-15T07:30:40;39.07;;;9.40;;
11761;SDS011;5938;47.098;15.474;2024-02-15T07:34:45;37.83;;;7.43;;
11761;SDS011;5938;47.098;15.474;2024-02-15T07:38:51;33.63;;;7.47;;
11761;SDS011;5938;47.098;15.474;2024-02-15T07:42:56;33.30;;;6.43;;
11761;SDS011;5938;47.098;15.474;2024-02-15T07:47:02;30.90;;;5.13;;
11761;SDS011;5938;47.098;15.474;2024-02-15T07:51:06;34.07;;;6.40;;
11761;SDS011;5938;47.098;15.474;2024-02-15T07:55:12;31.57;;;5.73;;
11761;SDS011;5938;47.098;15.474;2024-02-15T07:59:16;30.20;;;5.10;;
11761;SDS011;5938;47.098;15.474;2024-02-15T08:03:20;36.27;;;5.50;;
11761;SDS011;5938;47.098;15.474;2024-02-15T08:07:23;35.93;;;6.10;;
11761;SDS011;5938;47.098;15.474;2024-02-15T08:11:28;31.70;;;5.80;;
11761;SDS011;5938;47.098;15.474;2024-02-15T08:15:36;33.17;;;7.63;;
11761;SDS011;5938;47.098;15.474;2024-02-15T08:19:41;48.83;;;10.00;;
11761;SDS011;5938;47.098;15.474;2024-02-15T08:23:47;34.67;;;6.93;;
11761;SDS011;5938;47.098;15.474;2024-02-15T08:27:52;34.80;;;7.40;;
11761;SDS011;5938;47.098;15.474;2024-02-15T08:31:56;37.10;;;8.10;;
11761;SDS011;5938;47.098;15.474;2024-02-15T08:35:59;32.20;;;5.63;;
11761;SDS011;5938;47.098;15.474;2024-02-15T08:40:04;32.13;;;6.17;;
11761;SDS011;5938;47.098;15.474;2024-02-15T08:44:13;32.50;;;7.20;;
11761;SDS011;5938;47.098;15.474;2024-02-15T08:48:17;31.97;;;7.63;;
11761;SDS011;5938;47.098;15.474;2024-02-15T08:52:20;33.50;;;7.80;;
11761;SDS011;5938;47.098;15.474;2024-02-15T08:56:24;36.00;;;6.10;;
11761;SDS011;5938;47.098;15.474;2024-02-15T09:00:30;33.77;;;7.53;;
11761;SDS011;5938;47.098;15.474;2024-02-15T09:04:36;32.33;;;6.27;;
11761;SDS011;5938;47.098;15.474;2024-02-15T09:08:43;36.83;;;6.53;;
11761;SDS011;5938;47.098;15.474;2024-02-15T09:12:47;28.90;;;5.40;;
11761;SDS011;5938;47.098;15.474;2024-02-15T09:16:52;29.43;;;5.30;;
11761;SDS011;5938;47.098;15.474;2024-02-15T09:20:56;27.00;;;4.40;;
11761;SDS011;5938;47.098;15.474;2024-02-15T09:25:00;29.63;;;5.20;;
11761;SDS011;5938;47.098;15.474;2024-02-15T09:29:04;32.63;;;4.97;;
11761;SDS011;5938;47.098;15.474;2024-02-15T09:33:10;29.60;;;3.83;;
11761;SDS011;5938;47.098;15.474;2024-02-15T09:37:13;25.70;;;3.83;;
11761;SDS011;5938;47.098;15.474;2024-02-15T09:41:17;25.90;;;4.03;;
11761;SDS011;5938;47.098;15.474;2024-02-15T09:45:20;26.50;;;3.87;;
11761;SDS011;5938;47.098;15.474;2024-02-15T09:49:28;25.20;;;3.40;;
11761;SDS011;5938;47.098;15.474;2024-02-15T09:53:34;30.40;;;3.20;;
11761;SDS011;5938;47.098;15.474;2024-02-15T09:57:38;26.80;;;3.33;;
11761;SDS011;5938;47.098;15.474;2024-02-15T10:01:41;25.20;;;3.77;;
11761;SDS011;5938;47.098;15.474;2024-02-15T10:05:48;26.67;;;4.07;;
11761;SDS011;5938;47.098;15.474;2024-02-15T10:09:53;24.30;;;2.80;;
11761;SDS011;5938;47.098;15.474;2024-02-15T10:14:09;24.07;;;3.10;;
11761;SDS011;5938;47.098;15.474;2024-02-15T10:18:13;24.93;;;4.00;;
11761;SDS011;5938;47.098;15.474;2024-02-15T10:22:18;28.43;;;4.60;;
11761;SDS011;5938;47.098;15.474;2024-02-15T10:26:27;25.27;;;4.33;;
11761;SDS011;5938;47.098;15.474;2024-02-15T10:30:31;24.87;;;4.87;;
11761;SDS011;5938;47.098;15.474;2024-02-15T10:34:43;26.33;;;5.10;;
11761;SDS011;5938;47.098;15.474;2024-02-15T10:38:50;24.90;;;4.97;;
11761;SDS011;5938;47.098;15.474;2024-02-15T10:42:54;24.43;;;4.53;;
11761;SDS011;5938;47.098;15.474;2024-02-15T10:47:02;27.93;;;6.40;;
11761;SDS011;5938;47.098;15.474;2024-02-15T10:51:10;28.60;;;7.43;;
11761;SDS011;5938;47.098;15.474;2024-02-15T10:55:21;30.77;;;7.97;;
11761;SDS011;5938;47.098;15.474;2024-02-15T10:59:34;33.40;;;9.37;;
11761;SDS011;5938;47.098;15.474;2024-02-15T11:03:49;30.97;;;7.10;;
11761;SDS011;5938;47.098;15.474;2024-02-15T11:07:54;27.93;;;7.80;;
11761;SDS011;5938;47.098;15.474;2024-02-15T11:11:59;37.37;;;7.23;;
11761;SDS011;5938;47.098;15.474;2024-02-15T11:16:03;28.17;;;7.83;;
11761;SDS011;5938;47.098;15.474;2024-02-15T11:20:07;27.43;;;8.20;;
11761;SDS011;5938;47.098;15.474;2024-02-15T11:28:36;34.90;;;9.33;;
11761;SDS011;5938;47.098;15.474;2024-02-15T11:32:44;29.10;;;8.33;;
11761;SDS011;5938;47.098;15.474;2024-02-15T11:36:51;40.00;;;7.23;;
11761;SDS011;5938;47.098;15.474;2024-02-15T11:41:01;29.27;;;7.17;;
11761;SDS011;5938;47.098;15.474;2024-02-15T11:45:09;29.83;;;7.90;;
11761;SDS011;5938;47.098;15.474;2024-02-15T11:49:14;34.80;;;9.00;;
11761;SDS011;5938;47.098;15.474;2024-02-15T11:53:19;30.03;;;8.23;;
11761;SDS011;5938;47.098;15.474;2024-02-15T11:57:22;32.60;;;10.13;;
11761;SDS011;5938;47.098;15.474;2024-02-15T12:01:39;48.23;;;9.77;;
11761;SDS011;5938;47.098;15.474;2024-02-15T12:06:01;32.77;;;8.83;;
11761;SDS011;5938;47.098;15.474;2024-02-15T12:10:22;29.53;;;7.90;;
11761;SDS011;5938;47.098;15.474;2024-02-15T12:14:42;29.43;;;8.17;;
11761;SDS011;5938;47.098;15.474;2024-02-15T12:19:05;28.20;;;7.53;;
11761;SDS011;5938;47.098;15.474;2024-02-15T12:23:08;28.63;;;7.80;;
11761;SDS011;5938;47.098;15.474;2024-02-15T12:27:13;29.93;;;7.50;;
11761;SDS011;5938;47.098;15.474;2024-02-15T12:31:17;27.67;;;7.90;;
11761;SDS011;5938;47.098;15.474;2024-02-15T12:35:22;31.17;;;7.50;;
11761;SDS011;5938;47.098;15.474;2024-02-15T12:39:27;28.53;;;7.33;;
11761;SDS011;5938;47.098;15.474;2024-02-15T12:43:33;32.90;;;8.37;;
11761;SDS011;5938;47.098;15.474;2024-02-15T12:47:37;28.60;;;7.37;;
11761;SDS011;5938;47.098;15.474;2024-02-15T12:51:42;32.87;;;7.70;;
11761;SDS011;5938;47.098;15.474;2024-02-15T12:55:55;28.67;;;6.70;;
11761;SDS011;5938;47.098;15.474;2024-02-15T13:00:02;31.73;;;7.90;;
11761;SDS011;5938;47.098;15.474;2024-02-15T13:04:20;52.87;;;10.27;;
11761;SDS011;5938;47.098;15.474;2024-02-15T13:08:27;30.27;;;8.10;;
11761;SDS011;5938;47.098;15.474;2024-02-15T13:12:33;27.47;;;6.73;;
11761;SDS011;5938;47.098;15.474;2024-02-15T13:16:37;27.13;;;5.70;;
11761;SDS011;5938;47.098;15.474;2024-02-15T13:20:41;26.60;;;5.60;;
11761;SDS011;5938;47.098;15.474;2024-02-15T13:24:45;30.10;;;7.10;;
11761;SDS011;5938;47.098;15.474;2024-02-15T13:28:49;29.00;;;6.10;;
11761;SDS011;5938;47.098;15.474;2024-02-15T13:32:52;37.90;;;7.20;;
11761;SDS011;5938;47.098;15.474;2024-02-15T13:36:58;25.37;;;6.40;;
11761;SDS011;5938;47.098;15.474;2024-02-15T13:41:04;26.33;;;6.10;;
11761;SDS011;5938;47.098;15.474;2024-02-15T13:45:10;28.23;;;6.50;;
11761;SDS011;5938;47.098;15.474;2024-02-15T13:49:15;27.23;;;6.23;;
11761;SDS011;5938;47.098;15.474;2024-02-15T13:53:32;26.77;;;6.03;;
11761;SDS011;5938;47.098;15.474;2024-02-15T13:57:37;27.67;;;5.87;;
11761;SDS011;5938;47.098;15.474;2024-02-15T14:01:41;24.23;;;5.40;;
11761;SDS011;5938;47.098;15.474;2024-02-15T14:05:47;25.43;;;5.00;;
11761;SDS011;5938;47.098;15.474;2024-02-15T14:09:51;27.33;;;6.20;;
11761;SDS011;5938;47.098;15.474;2024-02-15T14:14:05;28.60;;;5.00;;
11761;SDS011;5938;47.098;15.474;2024-02-15T14:18:09;24.73;;;4.40;;
11761;SDS011;5938;47.098;15.474;2024-02-15T14:22:16;24.73;;;4.67;;
11761;SDS011;5938;47.098;15.474;2024-02-15T14:26:20;27.10;;;4.50;;
11761;SDS011;5938;47.098;15.474;2024-02-15T14:30:28;23.90;;;4.03;;
11761;SDS011;5938;47.098;15.474;2024-02-15T14:34:49;27.23;;;4.57;;
11761;SDS011;5938;47.098;15.474;2024-02-15T14:38:52;25.50;;;4.63;;
11761;SDS011;5938;47.098;15.474;2024-02-15T14:42:57;24.93;;;3.87;;
11761;SDS011;5938;47.098;15.474;2024-02-15T14:47:02;29.67;;;4.43;;
11761;SDS011;5938;47.098;15.474;2024-02-15T14:51:09;31.43;;;5.40;;
11761;SDS011;5938;47.098;15.474;2024-02-15T14:55:19;25.87;;;4.17;;
11761;SDS011;5938;47.098;15.474;2024-02-15T14:59:26;31.63;;;5.10;;
11761;SDS011;5938;47.098;15.474;2024-02-15T15:03:31;25.87;;;3.40;;
11761;SDS011;5938;47.098;15.474;2024-02-15T15:07:36;28.93;;;4.50;;
11761;SDS011;5938;47.098;15.474;2024-02-15T15:11:56;26.87;;;4.40;;
11761;SDS011;5938;47.098;15.474;2024-02-15T15:16:23;41.10;;;5.43;;
11761;SDS011;5938;47.098;15.474;2024-02-15T15:20:31;30.80;;;7.23;;
11761;SDS011;5938;47.098;15.474;2024-02-15T15:24:35;30.97;;;5.63;;
11761;SDS011;5938;47.098;15.474;2024-02-15T15:28:39;28.07;;;4.37;;
11761;SDS011;5938;47.098;15.474;2024-02-15T15:32:43;28.23;;;4.50;;
11761;SDS011;5938;47.098;15.474;2024-02-15T15:36:49;33.20;;;4.40;;
11761;SDS011;5938;47.098;15.474;2024-02-15T15:40:56;34.70;;;4.77;;
11761;SDS011;5938;47.098;15.474;2024-02-15T15:45:01;31.33;;;5.90;;
11761;SDS011;5938;47.098;15.474;2024-02-15T15:49:05;31.33;;;4.00;;
11761;SDS011;5938;47.098;15.474;2024-02-15T15:53:10;33.03;;;3.50;;
11761;SDS011;5938;47.098;15.474;2024-02-15T15:57:14;31.07;;;4.37;;
11761;SDS011;5938;47.098;15.474;2024-02-15T16:01:17;27.23;;;3.30;;
11761;SDS011;5938;47.098;15.474;2024-02-15T16:05:21;31.37;;;4.40;;
11761;SDS011;5938;47.098;15.474;2024-02-15T16:09:26;30.77;;;3.13;;
11761;SDS011;5938;47.098;15.474;2024-02-15T16:13:30;30.00;;;4.50;;
11761;SDS011;5938;47.098;15.474;2024-02-15T16:17:33;28.60;;;3.70;;
11761;SDS011;5938;47.098;15.474;2024-02-15T16:21:38;32.50;;;4.50;;
11761;SDS011;5938;47.098;15.474;2024-02-15T16:25:43;30.00;;;3.43;;
11761;SDS011;5938;47.098;15.474;2024-02-15T16:29:46;32.03;;;3.93;;
11761;SDS011;5938;47.098;15.474;2024-02-15T16:33:52;33.40;;;4.43;;
11761;SDS011;5938;47.098;15.474;2024-02-15T16:37:58;30.20;;;3.50;;
11761;SDS011;5938;47.098;15.474;2024-02-15T16:42:04;34.43;;;4.00;;
11761;SDS011;5938;47.098;15.474;2024-02-15T16:46:08;29.43;;;3.57;;
11761;SDS011;5938;47.098;15.474;2024-02-15T16:50:11;33.10;;;3.90;;
11761;SDS011;5938;47.098;15.474;2024-02-15T16:54:15;36.30;;;5.40;;
11761;SDS011;5938;47.098;15.474;2024-02-15T16:58:20;30.60;;;4.10;;
11761;SDS011;5938;47.098;15.474;2024-02-15T17:02:25;31.87;;;4.27;;
11761;SDS011;5938;47.098;15.474;2024-02-15T17:06:29;32.97;;;4.70;;
11761;SDS011;5938;47.098;15.474;2024-02-15T17:10:32;33.83;;;4.33;;
11761;SDS011;5938;47.098;15.474;2024-02-15T17:14:38;34.37;;;5.00;;
11761;SDS011;5938;47.098;15.474;2024-02-15T17:18:42;31.97;;;4.90;;
11761;SDS011;5938;47.098;15.474;2024-02-15T17:22:46;34.20;;;4.70;;
11761;SDS011;5938;47.098;15.474;2024-02-15T17:26:49;34.60;;;5.00;;
11761;SDS011;5938;47.098;15.474;2024-02-15T17:30:55;34.53;;;4.57;;
11761;SDS011;5938;47.098;15.474;2024-02-15T17:35:01;34.47;;;6.10;;
11761;SDS011;5938;47.098;15.474;2024-02-15T17:39:05;44.87;;;7.17;;
11761;SDS011;5938;47.098;15.474;2024-02-15T17:43:09;49.37;;;6.93;;
11761;SDS011;5938;47.098;15.474;2024-02-15T17:47:14;36.17;;;6.23;;
11761;SDS011;5938;47.098;15.474;2024-02-15T17:51:17;40.00;;;6.70;;
11761;SDS011;5938;47.098;15.474;2024-02-15T17:55:21;38.73;;;8.30;;
11761;SDS011;5938;47.098;15.474;2024-02-15T17:59:25;42.30;;;9.77;;
11761;SDS011;5938;47.098;15.474;2024-02-15T18:03:29;59.23;;;11.90;;
11761;SDS011;5938;47.098;15.474;2024-02-15T18:07:33;64.80;;;16.10;;
11761;SDS011;5938;47.098;15.474;2024-02-15T18:11:37;55.20;;;11.40;;
11761;SDS011;5938;47.098;15.474;2024-02-15T18:15:40;43.30;;;10.00;;
11761;SDS011;5938;47.098;15.474;2024-02-15T18:19:52;47.40;;;11.30;;
11761;SDS011;5938;47.098;15.474;2024-02-15T18:24:00;41.40;;;10.30;;
11761;SDS011;5938;47.098;15.474;2024-02-15T18:28:04;43.50;;;9.80;;
11761;SDS011;5938;47.098;15.474;2024-02-15T18:32:09;44.00;;;10.60;;
11761;SDS011;5938;47.098;15.474;2024-02-15T18:36:14;40.67;;;7.97;;
11761;SDS011;5938;47.098;15.474;2024-02-15T18:40:20;43.80;;;9.57;;
11761;SDS011;5938;47.098;15.474;2024-02-15T18:44:28;36.07;;;8.13;;
11761;SDS011;5938;47.098;15.474;2024-02-15T18:48:31;42.47;;;8.70;;
11761;SDS011;5938;47.098;15.474;2024-02-15T18:52:37;40.70;;;8.50;;
11761;SDS011;5938;47.098;15.474;2024-02-15T18:56:40;39.00;;;8.67;;
11761;SDS011;5938;47.098;15.474;2024-02-15T19:00:45;39.37;;;8.17;;
11761;SDS011;5938;47.098;15.474;2024-02-15T19:04:59;37.40;;;7.30;;
11761;SDS011;5938;47.098;15.474;2024-02-15T19:09:14;44.33;;;9.47;;
11761;SDS011;5938;47.098;15.474;2024-02-15T19:13:22;37.63;;;8.93;;
11761;SDS011;5938;47.098;15.474;2024-02-15T19:17:28;39.90;;;10.10;;
11761;SDS011;5938;47.098;15.474;2024-02-15T19:21:31;41.50;;;9.43;;
11761;SDS011;5938;47.098;15.474;2024-02-15T19:25:36;43.27;;;10.70;;
11761;SDS011;5938;47.098;15.474;2024-02-15T19:29:40;42.07;;;9.77;;
11761;SDS011;5938;47.098;15.474;2024-02-15T19:33:44;39.70;;;8.70;;
11761;SDS011;5938;47.098;15.474;2024-02-15T19:37:57;38.50;;;8.57;;
11761;SDS011;5938;47.098;15.474;2024-02-15T19:42:04;39.40;;;8.40;;
11761;SDS011;5938;47.098;15.474;2024-02-15T19:46:09;43.23;;;7.30;;
11761;SDS011;5938;47.098;15.474;2024-02-15T19:50:13;38.80;;;8.03;;
11761;SDS011;5938;47.098;15.474;2024-02-15T19:54:19;40.07;;;8.23;;
11761;SDS011;5938;47.098;15.474;2024-02-15T19:58:25;39.10;;;7.07;;
11761;SDS011;5938;47.098;15.474;2024-02-15T20:02:31;38.83;;;8.30;;
11761;SDS011;5938;47.098;15.474;2024-02-15T20:06:42;40.67;;;8.40;;
11761;SDS011;5938;47.098;15.474;2024-02-15T20:10:47;43.90;;;8.37;;
11761;SDS011;5938;47.098;15.474;2024-02-15T20:14:57;42.23;;;9.43;;
11761;SDS011;5938;47.098;15.474;2024-02-15T20:19:04;40.80;;;9.40;;
11761;SDS011;5938;47.098;15.474;2024-02-15T20:23:11;42.70;;;10.80;;
11761;SDS011;5938;47.098;15.474;2024-02-15T20:27:14;41.60;;;11.30;;
11761;SDS011;5938;47.098;15.474;2024-02-15T20:31:35;40.40;;;10.17;;
11761;SDS011;5938;47.098;15.474;2024-02-15T20:35:41;44.20;;;10.63;;
11761;SDS011;5938;47.098;15.474;2024-02-15T20:39:45;39.83;;;8.87;;
11761;SDS011;5938;47.098;15.474;2024-02-15T20:43:49;43.50;;;9.20;;
11761;SDS011;5938;47.098;15.474;2024-02-15T20:48:04;40.70;;;7.97;;
11761;SDS011;5938;47.098;15.474;2024-02-15T20:52:14;51.23;;;8.60;;
11761;SDS011;5938;47.098;15.474;2024-02-15T20:56:21;41.43;;;8.73;;
11761;SDS011;5938;47.098;15.474;2024-02-15T21:00:28;46.13;;;9.47;;
11761;SDS011;5938;47.098;15.474;2024-02-15T21:04:42;48.37;;;11.60;;
11761;SDS011;5938;47.098;15.474;2024-02-15T21:08:49;45.90;;;10.20;;
11761;SDS011;5938;47.098;15.474;2024-02-15T21:12:56;45.23;;;9.07;;
11761;SDS011;5938;47.098;15.474;2024-02-15T21:17:02;44.33;;;9.43;;
11761;SDS011;5938;47.098;15.474;2024-02-15T21:21:13;41.17;;;9.07;;
11761;SDS011;5938;47.098;15.474;2024-02-15T21:25:17;43.70;;;10.70;;
11761;SDS011;5938;47.098;15.474;2024-02-15T21:29:26;44.43;;;7.63;;
11761;SDS011;5938;47.098;15.474;2024-02-15T21:33:31;40.47;;;8.03;;
11761;SDS011;5938;47.098;15.474;2024-02-15T21:37:41;40.80;;;7.97;;
11761;SDS011;5938;47.098;15.474;2024-02-15T21:41:44;42.70;;;8.37;;
11761;SDS011;5938;47.098;15.474;2024-02-15T21:45:48;40.70;;;7.90;;
11761;SDS011;5938;47.098;15.474;2024-02-15T21:49:51;37.00;;;7.03;;
11761;SDS011;5938;47.098;15.474;2024-02-15T21:53:56;38.17;;;6.40;;
11761;SDS011;5938;47.098;15.474;2024-02-15T21:58:01;37.70;;;7.00;;
11761;SDS011;5938;47.098;15.474;2024-02-15T22:02:05;36.80;;;7.93;;
11761;SDS011;5938;47.098;15.474;2024-02-15T22:06:10;40.47;;;7.60;;
11761;SDS011;5938;47.098;15.474;2024-02-15T22:10:15;42.07;;;6.73;;
11761;SDS011;5938;47.098;15.474;2024-02-15T22:14:18;38.90;;;7.67;;
11761;SDS011;5938;47.098;15.474;2024-02-15T22:18:22;40.10;;;8.47;;
11761;SDS011;5938;47.098;15.474;2024-02-15T22:22:26;39.90;;;8.30;;
11761;SDS011;5938;47.098;15.474;2024-02-15T22:26:31;39.63;;;6.60;;
11761;SDS011;5938;47.098;15.474;2024-02-15T22:30:35;39.60;;;8.63;;
11761;SDS011;5938;47.098;15.474;2024-02-15T22:34:38;38.80;;;6.67;;
11761;SDS011;5938;47.098;15.474;2024-02-15T22:38:42;38.27;;;6.83;;
11761;SDS011;5938;47.098;15.474;2024-02-15T22:42:46;45.53;;;7.50;;
11761;SDS011;5938;47.098;15.474;2024-02-15T22:46:50;37.03;;;6.70;;
11761;SDS011;5938;47.098;15.474;2024-02-15T22:50:55;42.37;;;8.50;;
11761;SDS011;5938;47.098;15.474;2024-02-15T22:55:04;38.77;;;6.87;;
11761;SDS011;5938;47.098;15.474;2024-02-15T22:59:09;40.30;;;7.90;;
11761;SDS011;5938;47.098;15.474;2024-02-15T23:03:13;37.73;;;6.93;;
11761;SDS011;5938;47.098;15.474;2024-02-15T23:07:17;40.77;;;7.90;;
11761;SDS011;5938;47.098;15.474;2024-02-15T23:11:25;40.63;;;6.97;;
11761;SDS011;5938;47.098;15.474;2024-02-15T23:15:30;38.20;;;6.87;;
11761;SDS011;5938;47.098;15.474;2024-02-15T23:19:35;36.83;;;6.50;;
11761;SDS011;5938;47.098;15.474;2024-02-15T23:23:41;39.10;;;8.60;;
11761;SDS011;5938;47.098;15.474;2024-02-15T23:27:47;38.60;;;7.87;;
11761;SDS011;5938;47.098;15.474;2024-02-15T23:31:52;39.43;;;6.90;;
11761;SDS011;5938;47.098;15.474;2024-02-15T23:35:57;36.13;;;6.87;;
11761;SDS011;5938;47.098;15.474;2024-02-15T23:40:18;40.97;;;6.93;;
11761;SDS011;5938;47.098;15.474;2024-02-15T23:44:31;35.07;;;5.47;;
11761;SDS011;5938;47.098;15.474;2024-02-15T23:48:36;36.70;;;6.07;;
11761;SDS011;5938;47.098;15.474;2024-02-15T23:52:41;41.13;;;7.63;;
11761;SDS011;5938;47.098;15.474;2024-02-15T23:56:47;47.43;;;7.17;;
